createdAt,value
2023-01-13T01:53:30.047Z,10.08
2023-01-13T01:56:19.767Z,10.10
2023-01-13T03:45:50.815Z,6.52
2023-01-13T03:51:29.892Z,6.50
2023-01-13T04:00:22.280Z,6.60
2023-01-13T04:03:40.363Z,6.75
2023-01-13T04:06:46.981Z,6.73
2023-01-13T04:10:00.219Z,6.75
2023-01-13T04:13:22.824Z,6.74
2023-01-13T04:16:12.721Z,6.72
2023-01-13T04:19:14.882Z,6.72
2023-01-13T04:22:28.432Z,6.71
2023-01-13T04:25:34.806Z,6.68
2023-01-13T04:31:40.744Z,6.72
2023-01-13T04:34:42.575Z,6.71
2023-01-13T04:37:33.101Z,6.68
2023-01-13T04:40:37.783Z,6.66
2023-01-13T04:43:48.687Z,6.68
2023-01-13T04:49:26.832Z,6.73
2023-01-13T04:55:07.933Z,6.72
2023-01-13T05:00:48.740Z,6.73
2023-01-13T05:04:03.173Z,6.75
2023-01-13T05:09:43.046Z,6.82
2023-01-13T05:12:55.750Z,6.88
2023-01-13T05:15:44.017Z,6.91
2023-01-13T05:18:45.620Z,6.91
2023-01-13T05:24:52.586Z,6.94
2023-01-13T07:06:27.690Z,7.57
2023-01-13T07:09:17.730Z,7.56
2023-01-13T07:12:29.796Z,7.58
2023-01-13T07:15:31.669Z,7.60
2023-01-13T07:18:36.081Z,7.60
2023-01-13T07:21:27.652Z,7.60
2023-01-13T07:24:29.722Z,7.59
2023-01-13T07:30:53.731Z,7.54
2023-01-13T07:39:47.845Z,7.65
2023-01-13T07:42:56.375Z,7.67
2023-01-13T07:48:50.761Z,7.73
2023-01-13T07:51:54.591Z,7.76
2023-01-13T07:54:44.749Z,7.77
2023-01-13T08:00:23.753Z,7.87
2023-01-13T08:03:35.497Z,7.89
2023-01-13T08:06:39.727Z,7.95
2023-01-13T08:16:23.454Z,8.10
2023-01-13T08:21:50.704Z,8.16
2023-01-13T08:24:52.848Z,8.21
2023-01-13T08:27:55.218Z,8.23
2023-01-13T11:36:25.230Z,11.44
2023-01-13T11:40:20.957Z,11.50
2023-01-13T11:54:07.505Z,11.54
2023-01-13T11:58:14.624Z,11.52
2023-01-13T12:05:01.255Z,11.52
2023-01-13T12:21:52.710Z,11.19
2023-01-13T12:25:40.615Z,11.19
2023-01-13T12:29:34.113Z,11.18
2023-01-13T12:36:16.875Z,11.16
2023-01-13T13:25:37.996Z,10.86
2023-01-13T13:29:15.108Z,10.84
2023-01-13T13:33:14.152Z,10.85
2023-01-13T13:36:32.911Z,10.80
2023-01-13T13:40:25.180Z,10.82
2023-01-13T13:43:18.955Z,10.81
2023-01-13T13:47:09.099Z,10.79
2023-01-13T13:50:12.375Z,10.79
2023-01-13T13:54:06.085Z,10.79
2023-01-13T13:59:46.752Z,10.79
2023-01-13T14:02:48.584Z,10.79
2023-01-13T14:06:08.590Z,10.78
2023-01-13T14:09:45.125Z,10.82
2023-01-13T14:16:22.088Z,10.87
2023-01-13T14:20:31.468Z,10.86
2023-01-13T14:28:10.792Z,10.75
2023-01-13T14:34:48.540Z,10.73
2023-01-13T14:38:44.299Z,10.69
2023-01-13T14:44:59.899Z,10.61
2023-01-13T14:48:44.754Z,10.57
2023-01-13T14:54:59.002Z,10.46
2023-01-13T14:58:54.025Z,10.43
2023-01-13T15:02:46.076Z,10.39
2023-01-13T15:30:58.746Z,10.11
2023-01-13T15:34:20.652Z,10.07
2023-01-13T15:37:25.076Z,10.04
2023-01-13T15:41:04.920Z,10.01
2023-01-13T15:44:50.962Z,9.92
2023-01-13T15:48:38.780Z,9.89
2023-01-13T15:52:26.575Z,9.85
2023-01-13T15:56:17.540Z,9.81
2023-01-13T16:00:09.424Z,9.74
2023-01-13T16:03:57.735Z,9.66
2023-01-13T16:07:45.729Z,9.62
2023-01-13T16:11:34.114Z,9.56
2023-01-13T16:15:23.548Z,9.50
2023-01-13T16:19:06.844Z,9.49
2023-01-13T16:22:59.787Z,9.44
2023-01-13T16:26:49.856Z,9.39
2023-01-13T16:55:07.028Z,9.36
2023-01-13T16:58:22.811Z,9.31
2023-01-13T17:16:53.100Z,9.30
2023-01-13T17:20:10.160Z,9.32
2023-01-13T17:29:28.020Z,9.23
2023-01-13T17:32:30.598Z,9.19
2023-01-13T17:35:26.770Z,9.21
2023-01-13T17:38:48.857Z,9.16
2023-01-13T17:53:57.183Z,9.08
2023-01-13T18:03:08.331Z,9.05
2023-01-13T18:09:33.970Z,9.03
2023-01-13T18:16:19.320Z,8.99
2023-01-13T18:19:43.776Z,8.91
2023-01-13T18:23:27.484Z,8.83
2023-01-13T18:27:12.851Z,8.81
2023-01-13T18:30:12.537Z,8.80
2023-01-13T18:39:59.474Z,8.86
2023-01-13T18:45:37.874Z,8.84
2023-01-13T18:48:43.815Z,8.79
2023-01-13T18:52:16.053Z,8.81
2023-01-13T18:55:24.635Z,8.80
2023-01-13T18:58:48.784Z,8.81
2023-01-13T19:05:48.147Z,8.82
2023-01-13T19:11:33.473Z,8.82
2023-01-13T19:14:55.572Z,8.75
2023-01-13T19:18:45.401Z,8.65
2023-01-13T19:22:28.466Z,8.51
2023-01-13T19:26:12.788Z,8.47
2023-01-13T19:30:02.596Z,8.43
2023-01-13T19:36:51.914Z,8.46
2023-01-13T19:43:38.640Z,8.45
2023-01-13T19:46:41.610Z,8.48
2023-01-13T19:53:07.854Z,8.49
2023-01-13T19:59:18.805Z,8.40
2023-01-13T20:02:38.480Z,8.41
2023-01-13T20:05:33.044Z,8.44
2023-01-13T20:09:08.885Z,8.46
2023-01-13T20:12:31.211Z,8.47
2023-01-13T20:19:04.956Z,8.48
2023-01-13T20:22:56.400Z,8.45
2023-01-13T20:26:45.372Z,8.34
2023-01-13T20:33:44.516Z,8.12
2023-01-13T20:36:59.690Z,8.11
2023-01-13T21:02:00.433Z,8.07
2023-01-13T21:08:10.911Z,8.07
2023-01-13T21:15:10.915Z,8.03
2023-01-13T21:55:37.542Z,7.96
2023-01-13T21:58:52.207Z,7.94
2023-01-13T22:29:07.068Z,7.94
2023-01-13T22:32:12.866Z,7.94
2023-01-13T23:20:44.245Z,7.79
2023-01-13T23:24:26.933Z,7.77
2023-01-13T23:28:15.641Z,7.77
2023-01-13T23:32:09.446Z,7.76
2023-01-13T23:35:57.926Z,7.75
2023-01-13T23:39:45.655Z,7.73
2023-01-13T23:43:34.263Z,7.74
2023-01-13T23:47:21.936Z,7.77
2023-01-13T23:54:31.066Z,7.73
2023-01-13T23:57:55.746Z,7.72
